createdAt,value
2018-09-15T00:00:51.860Z,14.52
2018-09-15T00:03:21.210Z,14.50
2018-09-15T00:05:50.029Z,14.52
2018-09-15T00:08:19.192Z,14.65
2018-09-15T00:10:49.594Z,14.55
2018-09-15T00:13:19.063Z,14.51
2018-09-15T00:15:47.913Z,14.50
2018-09-15T00:18:17.955Z,14.47
2018-09-15T00:20:46.752Z,14.40
2018-09-15T00:23:15.508Z,14.30
2018-09-15T00:25:44.322Z,14.56
2018-09-15T00:28:13.448Z,14.66
2018-09-15T00:30:43.224Z,14.50
2018-09-15T00:33:12.246Z,14.36
2018-09-15T00:35:41.193Z,14.25
2018-09-15T00:38:11.800Z,14.17
2018-09-15T00:40:40.637Z,14.26
2018-09-15T00:43:10.100Z,14.24
2018-09-15T00:45:38.824Z,14.40
2018-09-15T00:48:08.195Z,14.39
2018-09-15T00:50:36.971Z,14.39
2018-09-15T00:53:05.782Z,14.49
2018-09-15T00:55:34.572Z,14.33
2018-09-15T00:58:03.507Z,14.32
2018-09-15T01:00:32.324Z,14.47
2018-09-15T01:03:01.190Z,14.42
2018-09-15T01:05:30.569Z,14.41
2018-09-15T01:07:59.475Z,14.49
2018-09-15T01:10:28.166Z,14.54
2018-09-15T01:12:57.229Z,14.54
2018-09-15T01:15:26.025Z,14.47
2018-09-15T01:17:55.492Z,14.39
2018-09-15T01:20:24.279Z,14.38
2018-09-15T01:22:53.036Z,14.44
2018-09-15T01:25:21.858Z,14.58
2018-09-15T01:27:50.755Z,14.69
2018-09-15T01:30:19.563Z,14.82
2018-09-15T01:32:48.359Z,14.81
2018-09-15T01:35:17.903Z,14.83
2018-09-15T01:37:47.280Z,14.69
2018-09-15T01:40:16.107Z,14.71
2018-09-15T01:42:45.068Z,14.78
2018-09-15T01:45:14.550Z,14.62
2018-09-15T01:47:43.424Z,14.64
2018-09-15T01:50:12.383Z,14.69
2018-09-15T01:52:41.381Z,14.70
2018-09-15T01:55:10.168Z,14.75
2018-09-15T01:57:39.275Z,14.69
2018-09-15T02:00:09.089Z,14.68
2018-09-15T02:02:37.901Z,14.64
2018-09-15T02:05:06.815Z,14.67
2018-09-15T02:07:36.360Z,14.72
2018-09-15T02:10:05.175Z,14.63
2018-09-15T02:12:33.934Z,14.75
2018-09-15T02:15:02.689Z,14.68
2018-09-15T02:17:31.636Z,14.75
2018-09-15T02:20:00.662Z,14.77
2018-09-15T02:22:29.749Z,14.77
2018-09-15T02:25:00.075Z,14.77
2018-09-15T02:27:29.203Z,14.58
2018-09-15T02:29:58.017Z,14.71
2018-09-15T02:32:26.982Z,14.84
2018-09-15T02:34:56.001Z,14.62
2018-09-15T02:37:24.879Z,14.70
2018-09-15T02:39:53.995Z,14.82
2018-09-15T02:42:22.759Z,14.71
2018-09-15T02:44:52.962Z,14.71
2018-09-15T02:47:21.863Z,14.58
2018-09-15T02:49:50.740Z,14.84
2018-09-15T02:52:20.127Z,14.74
2018-09-15T02:54:49.094Z,14.65
2018-09-15T02:57:18.486Z,14.66
2018-09-15T02:59:47.290Z,14.58
2018-09-15T03:02:17.045Z,14.52
2018-09-15T03:04:46.656Z,14.58
2018-09-15T03:07:15.622Z,14.51
2018-09-15T03:09:44.375Z,14.49
2018-09-15T03:12:13.802Z,14.56
2018-09-15T03:14:42.569Z,14.59
2018-09-15T03:17:11.333Z,14.70
2018-09-15T03:19:40.172Z,14.66
2018-09-15T03:22:10.241Z,14.63
2018-09-15T03:24:39.583Z,14.64
2018-09-15T03:27:08.436Z,14.60
2018-09-15T03:29:37.168Z,14.51
2018-09-15T03:32:06.196Z,14.44
2018-09-15T03:34:35.091Z,14.29
2018-09-15T03:37:03.897Z,14.41
2018-09-15T03:39:32.719Z,14.28
2018-09-15T03:42:01.554Z,14.26
2018-09-15T03:44:30.421Z,14.37
2018-09-15T03:46:59.206Z,14.29
2018-09-15T03:49:28.197Z,14.21
2018-09-15T03:51:57.174Z,14.29
2018-09-15T03:54:26.017Z,14.13
2018-09-15T03:56:55.512Z,14.12
2018-09-15T03:59:24.828Z,14.15
2018-09-15T04:01:53.581Z,14.20
2018-09-15T04:04:22.360Z,13.99
2018-09-15T04:06:51.088Z,13.96
2018-09-15T04:09:19.825Z,13.98
2018-09-15T04:11:48.612Z,13.93
2018-09-15T04:14:17.369Z,13.89
2018-09-15T04:16:46.044Z,13.92
2018-09-15T04:19:14.962Z,13.96
2018-09-15T04:21:43.717Z,13.77
2018-09-15T04:24:12.446Z,13.86
2018-09-15T04:26:41.208Z,13.88
2018-09-15T04:29:09.923Z,13.80
2018-09-15T04:31:39.143Z,14.00
2018-09-15T04:34:07.970Z,14.01
2018-09-15T04:36:36.651Z,13.97
2018-09-15T04:39:08.100Z,14.00
2018-09-15T04:41:36.767Z,14.15
2018-09-15T04:44:05.569Z,14.14
2018-09-15T04:46:34.265Z,14.00
2018-09-15T04:49:02.963Z,14.08
2018-09-15T04:51:31.675Z,13.93
2018-09-15T04:54:00.402Z,13.96
2018-09-15T04:56:29.466Z,14.06
2018-09-15T04:58:58.785Z,14.12
2018-09-15T05:01:27.526Z,14.20
2018-09-15T05:03:57.263Z,14.18
2018-09-15T05:06:26.049Z,14.07
2018-09-15T05:08:54.913Z,14.11
2018-09-15T05:11:23.605Z,14.12
2018-09-15T05:13:52.317Z,14.12
2018-09-15T05:16:21.071Z,14.11
2018-09-15T05:18:49.789Z,14.12
2018-09-15T05:21:18.583Z,14.21
2018-09-15T05:23:47.373Z,14.17
2018-09-15T05:26:16.096Z,14.15
2018-09-15T05:28:44.777Z,14.20
2018-09-15T05:31:13.447Z,14.26
2018-09-15T05:33:42.089Z,14.22
2018-09-15T05:36:10.811Z,14.17
2018-09-15T05:38:39.493Z,14.22
2018-09-15T05:41:08.274Z,14.39
2018-09-15T05:43:36.968Z,14.36
2018-09-15T05:46:05.709Z,14.40
2018-09-15T05:48:34.522Z,14.47
2018-09-15T05:51:03.232Z,14.45
2018-09-15T05:53:32.116Z,14.56
2018-09-15T05:56:00.907Z,14.40
2018-09-15T05:58:29.648Z,14.62
2018-09-15T06:00:58.456Z,14.58
2018-09-15T06:03:27.124Z,14.58
2018-09-15T06:05:56.071Z,14.67
2018-09-15T06:08:24.917Z,14.86
2018-09-15T06:10:54.791Z,14.82
2018-09-15T06:13:23.671Z,14.70
2018-09-15T06:15:52.434Z,14.81
2018-09-15T06:18:21.353Z,14.91
2018-09-15T06:20:50.192Z,15.03
2018-09-15T06:23:19.845Z,15.09
2018-09-15T06:25:48.585Z,15.08
2018-09-15T06:28:17.278Z,15.43
2018-09-15T06:30:46.006Z,15.73
2018-09-15T06:33:15.165Z,15.73
2018-09-15T06:35:44.170Z,15.85
2018-09-15T06:38:12.887Z,15.95
2018-09-15T06:40:41.572Z,16.10
2018-09-15T06:43:10.308Z,16.41
2018-09-15T06:45:39.325Z,16.58
2018-09-15T06:48:08.552Z,16.76
2018-09-15T06:50:37.306Z,16.85
2018-09-15T06:53:06.016Z,16.30
2018-09-15T06:55:35.424Z,16.51
2018-09-15T06:58:04.230Z,16.05
2018-09-15T07:00:32.960Z,16.48
2018-09-15T07:03:01.701Z,16.60
2018-09-15T07:05:30.379Z,16.43
2018-09-15T07:07:59.061Z,16.51
2018-09-15T07:10:27.820Z,16.76
2018-09-15T07:12:56.687Z,17.14
2018-09-15T07:15:25.431Z,17.06
2018-09-15T07:17:54.155Z,16.95
2018-09-15T07:20:22.885Z,17.28
2018-09-15T07:22:51.579Z,17.39
2018-09-15T07:25:21.260Z,17.35
2018-09-15T07:27:50.026Z,17.75
2018-09-15T07:30:19.311Z,18.03
2018-09-15T07:32:48.159Z,18.12
2018-09-15T07:35:17.110Z,18.64
2018-09-15T07:37:45.966Z,18.17
2018-09-15T07:40:14.666Z,18.72
2018-09-15T07:42:43.412Z,18.39
2018-09-15T07:45:12.088Z,17.98
2018-09-15T07:47:40.893Z,18.59
2018-09-15T07:50:09.581Z,18.85
2018-09-15T07:52:38.326Z,18.83
2018-09-15T07:55:07.397Z,18.82
2018-09-15T07:57:36.233Z,18.96
2018-09-15T08:00:04.938Z,19.42
2018-09-15T08:02:33.703Z,19.42
2018-09-15T08:05:02.587Z,19.69
2018-09-15T08:07:31.317Z,20.04
2018-09-15T08:10:00.037Z,20.47
2018-09-15T08:12:28.704Z,20.96
2018-09-15T08:14:57.381Z,21.13
2018-09-15T08:17:26.116Z,21.13
2018-09-15T08:20:10.898Z,21.70
2018-09-15T08:22:41.620Z,21.31
2018-09-15T08:25:23.166Z,21.07
2018-09-15T08:27:51.965Z,21.42
2018-09-15T08:30:20.840Z,20.70
2018-09-15T08:32:49.891Z,21.09
2018-09-15T08:35:18.752Z,21.66
2018-09-15T08:37:47.575Z,22.01
2018-09-15T08:40:16.477Z,21.27
2018-09-15T08:42:45.513Z,20.85
2018-09-15T08:45:14.353Z,21.06
2018-09-15T08:47:43.146Z,21.50
2018-09-15T08:50:12.006Z,21.17
2018-09-15T08:52:40.732Z,20.73
2018-09-15T08:55:09.692Z,20.68
2018-09-15T08:57:39.681Z,20.75
2018-09-15T09:00:08.434Z,20.73
2018-09-15T09:02:37.317Z,20.41
2018-09-15T09:05:06.038Z,20.22
2018-09-15T09:07:42.032Z,20.30
2018-09-15T09:10:10.758Z,20.56
2018-09-15T09:12:39.683Z,20.57
2018-09-15T09:15:08.389Z,20.50
2018-09-15T09:17:37.284Z,20.58
2018-09-15T09:20:06.632Z,20.39
2018-09-15T09:22:35.459Z,20.59
2018-09-15T09:25:04.208Z,21.01
2018-09-15T09:27:32.982Z,20.94
2018-09-15T09:30:01.718Z,20.22
2018-09-15T09:32:30.948Z,20.20
2018-09-15T09:34:59.778Z,19.69
2018-09-15T09:37:28.482Z,19.42
2018-09-15T09:39:57.261Z,19.24
2018-09-15T09:42:26.171Z,18.99
2018-09-15T09:44:55.061Z,18.92
2018-09-15T09:47:23.839Z,18.54
2018-09-15T09:49:52.606Z,18.53
2018-09-15T09:52:21.706Z,18.61
2018-09-15T09:54:50.487Z,18.40
2018-09-15T09:57:19.364Z,18.12
2018-09-15T09:59:48.108Z,18.26
2018-09-15T10:02:22.179Z,18.40
2018-09-15T10:04:51.006Z,18.35
2018-09-15T10:07:20.703Z,18.26
2018-09-15T10:09:49.575Z,18.23
2018-09-15T10:12:18.300Z,18.20
2018-09-15T10:14:47.259Z,18.32
2018-09-15T10:17:16.048Z,18.28
2018-09-15T10:19:44.820Z,18.55
2018-09-15T10:22:13.752Z,18.34
2018-09-15T10:24:44.592Z,18.33
2018-09-15T10:27:13.347Z,18.58
2018-09-15T10:29:42.054Z,18.76
2018-09-15T10:32:10.797Z,18.63
2018-09-15T10:34:39.495Z,18.20
2018-09-15T10:37:08.271Z,18.29
2018-09-15T10:39:37.035Z,18.33
2018-09-15T10:42:05.806Z,18.46
2018-09-15T10:47:10.811Z,18.65
2018-09-15T10:49:39.559Z,18.55
2018-09-15T10:52:13.814Z,18.69
2018-09-15T10:54:42.596Z,18.56
2018-09-15T10:57:11.293Z,18.53
2018-09-15T10:59:40.044Z,18.62
2018-09-15T11:02:12.911Z,18.86
2018-09-15T11:04:44.012Z,19.66
2018-09-15T11:07:13.109Z,19.63
2018-09-15T11:09:41.916Z,19.69
2018-09-15T11:12:11.723Z,19.81
2018-09-15T11:14:40.511Z,19.46
2018-09-15T11:17:10.124Z,19.28
2018-09-15T11:19:39.484Z,18.97
2018-09-15T11:22:08.788Z,19.14
2018-09-15T11:24:38.279Z,19.17
2018-09-15T11:27:07.051Z,19.02
2018-09-15T11:29:36.565Z,18.78
2018-09-15T11:32:05.448Z,18.81
2018-09-15T11:34:34.231Z,18.98
2018-09-15T11:37:03.204Z,18.76
2018-09-15T11:39:31.964Z,18.92
2018-09-15T11:42:00.812Z,19.13
2018-09-15T11:44:29.661Z,19.14
2018-09-15T11:46:58.609Z,19.36
2018-09-15T11:49:28.167Z,19.41
2018-09-15T11:51:56.899Z,19.67
2018-09-15T11:54:25.777Z,19.45
2018-09-15T11:56:55.348Z,19.36
2018-09-15T11:59:24.287Z,18.92
2018-09-15T12:01:53.399Z,19.22
2018-09-15T12:04:22.838Z,19.21
2018-09-15T12:06:51.633Z,19.26
2018-09-15T12:09:20.375Z,19.07
2018-09-15T12:11:49.139Z,18.40
2018-09-15T12:14:19.065Z,18.27
2018-09-15T12:16:47.887Z,18.64
2018-09-15T12:19:16.741Z,18.46
2018-09-15T12:21:45.541Z,18.77
2018-09-15T12:24:14.294Z,18.70
2018-09-15T12:26:43.080Z,18.94
2018-09-15T12:29:11.831Z,18.48
2018-09-15T12:31:40.582Z,18.61
2018-09-15T12:34:09.944Z,18.40
2018-09-15T12:36:38.628Z,18.47
2018-09-15T12:39:08.173Z,18.40
2018-09-15T12:41:37.273Z,18.34
2018-09-15T12:44:06.051Z,18.29
2018-09-15T12:46:34.943Z,18.41
2018-09-15T12:49:03.657Z,18.28
2018-09-15T12:51:32.564Z,18.24
2018-09-15T12:54:02.176Z,18.11
2018-09-15T12:56:31.047Z,18.18
2018-09-15T12:59:00.083Z,18.12
2018-09-15T13:01:28.978Z,18.15
2018-09-15T13:03:57.731Z,18.14
2018-09-15T13:06:26.775Z,18.22
2018-09-15T13:08:56.549Z,18.38
2018-09-15T13:11:25.491Z,18.38
2018-09-15T13:13:54.366Z,18.37
2018-09-15T13:16:23.196Z,18.51
2018-09-15T13:18:52.031Z,18.18
2018-09-15T13:21:21.475Z,18.25
2018-09-15T13:23:50.394Z,18.26
2018-09-15T13:26:19.172Z,18.14
2018-09-15T13:28:48.174Z,18.19
2018-09-15T13:31:16.970Z,18.12
2018-09-15T13:33:45.795Z,17.98
2018-09-15T13:36:14.883Z,17.93
2018-09-15T13:38:43.640Z,17.88
2018-09-15T13:41:14.457Z,17.82
2018-09-15T13:43:43.265Z,17.85
2018-09-15T13:46:12.068Z,17.79
2018-09-15T13:48:41.467Z,17.72
2018-09-15T13:51:10.295Z,17.59
2018-09-15T13:53:39.230Z,17.73
2018-09-15T13:56:07.975Z,17.78
2018-09-15T13:58:36.767Z,17.83
2018-09-15T14:01:05.802Z,17.83
2018-09-15T14:03:34.599Z,17.76
2018-09-15T14:06:03.340Z,17.62
2018-09-15T14:08:32.121Z,17.59
2018-09-15T14:11:00.972Z,17.60
2018-09-15T14:13:29.839Z,17.70
2018-09-15T14:15:58.730Z,17.65
2018-09-15T14:18:27.516Z,17.84
2018-09-15T14:20:57.145Z,17.88
2018-09-15T14:23:25.869Z,17.77
2018-09-15T14:25:55.105Z,17.79
2018-09-15T14:28:23.917Z,17.78
2018-09-15T14:30:53.333Z,17.82
2018-09-15T14:33:22.143Z,17.69
2018-09-15T14:35:50.936Z,17.68
2018-09-15T14:38:20.177Z,17.72
2018-09-15T14:40:49.714Z,17.77
2018-09-15T14:43:18.497Z,17.75
2018-09-15T14:45:48.655Z,17.61
2018-09-15T14:48:18.143Z,17.64
2018-09-15T14:50:46.892Z,17.61
2018-09-15T14:53:15.685Z,17.81
2018-09-15T14:55:44.528Z,17.73
2018-09-15T14:58:13.243Z,17.70
2018-09-15T15:00:42.040Z,17.73
2018-09-15T15:03:11.675Z,17.75
2018-09-15T15:05:40.566Z,17.75
2018-09-15T15:08:10.084Z,17.55
2018-09-15T15:10:38.999Z,17.60
2018-09-15T15:13:07.868Z,17.60
2018-09-15T15:15:36.631Z,17.63
2018-09-15T15:18:05.446Z,17.78
2018-09-15T15:20:34.182Z,17.70
2018-09-15T15:23:08.619Z,17.78
2018-09-15T15:25:37.388Z,17.78
2018-09-15T15:28:06.007Z,17.65
2018-09-15T15:30:35.820Z,17.50
2018-09-15T15:33:04.519Z,17.48
2018-09-15T15:35:33.265Z,17.38
2018-09-15T15:38:01.971Z,17.40
2018-09-15T15:40:30.755Z,17.53
2018-09-15T15:42:59.403Z,17.64
2018-09-15T15:45:28.031Z,17.59
2018-09-15T15:47:56.769Z,17.58
2018-09-15T15:50:25.469Z,17.56
2018-09-15T15:52:54.480Z,17.56
2018-09-15T15:55:22.635Z,17.56
2018-09-15T15:57:51.363Z,17.56
2018-09-15T16:00:20.056Z,17.55
2018-09-15T16:02:48.732Z,17.62
2018-09-15T16:05:17.489Z,17.45
2018-09-15T16:07:46.999Z,17.54
2018-09-15T16:10:15.780Z,17.59
2018-09-15T16:12:44.511Z,17.65
2018-09-15T16:15:13.236Z,17.68
2018-09-15T16:17:42.312Z,17.65
2018-09-15T16:20:11.072Z,17.53
2018-09-15T16:22:39.758Z,17.49
2018-09-15T16:25:08.553Z,17.41
2018-09-15T16:27:37.430Z,17.49
2018-09-15T16:30:06.329Z,17.52
2018-09-15T16:32:36.549Z,17.45
2018-09-15T16:35:05.215Z,17.29
2018-09-15T16:37:33.852Z,17.29
2018-09-15T16:40:02.733Z,17.25
2018-09-15T16:42:31.555Z,17.24
2018-09-15T16:45:00.212Z,17.22
2018-09-15T16:47:28.839Z,17.24
2018-09-15T16:49:57.475Z,17.11
2018-09-15T16:52:26.269Z,17.19
2018-09-15T16:54:54.964Z,17.18
2018-09-15T16:57:23.616Z,17.05
2018-09-15T16:59:52.888Z,17.19
2018-09-15T17:02:21.746Z,17.09
2018-09-15T17:04:51.612Z,17.08
2018-09-15T17:07:20.427Z,17.04
2018-09-15T17:09:49.097Z,16.95
2018-09-15T17:12:18.022Z,17.05
2018-09-15T17:14:47.260Z,16.92
2018-09-15T17:17:16.010Z,16.86
2018-09-15T17:19:45.488Z,16.88
2018-09-15T17:22:14.397Z,16.80
2018-09-15T17:24:43.223Z,16.82
2018-09-15T17:27:11.867Z,16.73
2018-09-15T17:29:40.612Z,16.67
2018-09-15T17:32:09.248Z,16.61
2018-09-15T17:34:37.987Z,16.63
2018-09-15T17:37:06.779Z,16.69
2018-09-15T17:39:35.512Z,16.69
2018-09-15T17:42:04.239Z,16.56
2018-09-15T17:44:32.932Z,16.49
2018-09-15T17:47:01.717Z,16.45
2018-09-15T17:49:30.383Z,16.44
2018-09-15T17:52:00.243Z,16.47
2018-09-15T17:54:29.103Z,16.52
2018-09-15T17:56:57.740Z,16.52
2018-09-15T17:59:33.895Z,16.52
2018-09-15T18:02:02.525Z,16.45
2018-09-15T18:04:31.619Z,16.48
2018-09-15T18:07:00.573Z,16.43
2018-09-15T18:09:29.649Z,16.48
2018-09-15T18:11:58.213Z,16.41
2018-09-15T18:14:27.633Z,16.34
2018-09-15T18:16:56.282Z,16.31
2018-09-15T18:19:25.056Z,16.41
2018-09-15T18:21:55.490Z,16.31
2018-09-15T18:24:26.083Z,16.26
2018-09-15T18:26:56.481Z,16.17
2018-09-15T18:29:25.149Z,15.97
2018-09-15T18:31:53.811Z,15.93
2018-09-15T18:34:22.714Z,15.97
2018-09-15T18:36:51.511Z,15.91
2018-09-15T18:39:19.960Z,15.97
2018-09-15T18:41:48.685Z,15.86
2018-09-15T18:44:17.768Z,15.83
2018-09-15T18:46:46.404Z,15.60
2018-09-15T18:49:15.058Z,15.51
2018-09-15T18:51:43.721Z,15.32
2018-09-15T18:54:12.817Z,15.42
2018-09-15T18:56:41.459Z,15.37
2018-09-15T18:59:10.338Z,15.34
2018-09-15T19:01:39.060Z,15.33
2018-09-15T19:04:07.741Z,15.31
2018-09-15T19:06:36.368Z,15.34
2018-09-15T19:09:07.724Z,15.39
2018-09-15T19:11:36.543Z,15.41
2018-09-15T19:14:05.412Z,15.45
2018-09-15T19:16:35.068Z,15.24
2018-09-15T19:19:03.727Z,15.37
2018-09-15T19:21:32.381Z,15.08
2018-09-15T19:24:01.462Z,15.13
2018-09-15T19:26:30.161Z,15.04
2018-09-15T19:28:58.760Z,14.83
2018-09-15T19:31:27.484Z,14.74
2018-09-15T19:33:56.183Z,14.73
2018-09-15T19:36:24.895Z,14.69
2018-09-15T19:38:53.638Z,14.64
2018-09-15T19:41:22.440Z,14.52
2018-09-15T19:43:51.080Z,14.49
2018-09-15T19:46:19.773Z,14.65
2018-09-15T19:48:48.427Z,14.57
2018-09-15T19:51:17.073Z,14.54
2018-09-15T19:53:45.754Z,14.71
2018-09-15T19:56:14.898Z,14.69
2018-09-15T19:58:43.542Z,14.66
2018-09-15T20:01:12.221Z,14.73
2018-09-15T20:03:40.906Z,14.77
2018-09-15T20:06:09.640Z,14.59
2018-09-15T20:08:38.232Z,14.62
2018-09-15T20:11:07.203Z,14.63
2018-09-15T20:13:35.896Z,14.66
2018-09-15T20:16:03.556Z,14.68
2018-09-15T20:18:31.247Z,14.53
2018-09-15T20:20:59.596Z,14.60
2018-09-15T20:23:28.707Z,14.60
2018-09-15T20:25:57.375Z,14.81
2018-09-15T20:28:26.007Z,14.68
2018-09-15T20:30:54.669Z,14.62
2018-09-15T20:33:23.402Z,14.75
2018-09-15T20:35:52.602Z,14.72
2018-09-15T20:38:21.216Z,14.75
2018-09-15T20:40:49.848Z,14.80
2018-09-15T20:43:18.459Z,14.82
2018-09-15T20:45:47.104Z,14.81
2018-09-15T20:48:15.758Z,14.83
2018-09-15T20:50:44.419Z,14.84
2018-09-15T20:53:13.453Z,14.81
2018-09-15T20:55:42.119Z,14.64
2018-09-15T20:58:10.776Z,14.68
2018-09-15T21:00:39.412Z,14.66
2018-09-15T21:03:08.108Z,14.68
2018-09-15T21:05:36.765Z,14.62
2018-09-15T21:08:05.427Z,14.72
2018-09-15T21:10:34.375Z,14.68
2018-09-15T21:13:03.030Z,14.66
2018-09-15T21:15:31.717Z,14.55
2018-09-15T21:18:01.499Z,14.55
2018-09-15T21:20:30.175Z,14.62
2018-09-15T21:22:59.412Z,14.75
2018-09-15T21:25:28.295Z,14.79
2018-09-15T21:27:57.003Z,14.73
2018-09-15T21:30:26.060Z,14.67
2018-09-15T21:32:54.978Z,14.75
2018-09-15T21:35:26.136Z,14.60
2018-09-15T21:37:54.880Z,14.70
2018-09-15T21:40:25.224Z,14.80
2018-09-15T21:42:53.933Z,14.80
2018-09-15T21:45:34.760Z,14.77
2018-09-15T21:48:06.019Z,14.69
2018-09-15T21:50:42.283Z,14.62
2018-09-15T21:53:12.440Z,14.58
2018-09-15T21:55:41.084Z,14.68
2018-09-15T21:58:10.091Z,14.75
2018-09-15T22:00:39.032Z,14.64
2018-09-15T22:03:07.715Z,14.66
2018-09-15T22:05:38.503Z,14.72
2018-09-15T22:08:14.322Z,14.59
2018-09-15T22:10:43.963Z,14.62
2018-09-15T22:13:14.178Z,14.57
2018-09-15T22:15:42.907Z,14.48
2018-09-15T22:18:12.502Z,14.49
2018-09-15T22:20:43.252Z,14.45
2018-09-15T22:23:12.661Z,14.52
2018-09-15T22:25:41.348Z,14.43
2018-09-15T22:28:16.900Z,14.26
2018-09-15T22:30:48.695Z,14.22
2018-09-15T22:33:19.317Z,14.24
2018-09-15T22:35:48.302Z,14.22
2018-09-15T22:38:18.201Z,14.17
2018-09-15T22:40:46.914Z,14.22
2018-09-15T22:43:18.799Z,14.11
2018-09-15T22:45:47.488Z,14.01
2018-09-15T22:48:16.359Z,14.07
2018-09-15T22:50:45.299Z,14.11
2018-09-15T22:53:13.984Z,14.00
2018-09-15T22:55:42.700Z,13.93
2018-09-15T22:58:11.531Z,13.79
2018-09-15T23:00:40.785Z,13.82
2018-09-15T23:03:09.589Z,13.81
2018-09-15T23:05:38.900Z,13.67
2018-09-15T23:08:07.869Z,13.61
2018-09-15T23:10:36.462Z,13.60
2018-09-15T23:13:05.319Z,13.45
2018-09-15T23:15:34.218Z,13.51
2018-09-15T23:18:02.884Z,13.48
2018-09-15T23:20:32.649Z,13.60
2018-09-15T23:23:01.383Z,13.54
2018-09-15T23:25:30.512Z,13.43
2018-09-15T23:27:59.179Z,13.50
2018-09-15T23:30:28.043Z,13.41
2018-09-15T23:32:57.882Z,13.41
2018-09-15T23:35:26.584Z,13.33
2018-09-15T23:37:55.400Z,13.39
2018-09-15T23:40:24.155Z,13.25
2018-09-15T23:42:52.997Z,13.20
2018-09-15T23:45:21.672Z,13.23
2018-09-15T23:47:50.635Z,13.18
2018-09-15T23:50:19.594Z,13.10
2018-09-15T23:52:49.191Z,13.15
2018-09-15T23:55:18.033Z,13.21
2018-09-15T23:57:46.968Z,13.19
